Time;durP1;ratioP1;P1;durP2;ratioP2;P2;SDS_P1;SDS_P2;PMS_P1;PMS_P2;Temp;Humidity;BMP_temperature;BMP_pressure;BME280_temperature;BME280_humidity;BME280_pressure;Samples;Min_cycle;Max_cycle;Signal;HPM_P1;HPM_P2
2022/08/25 00:03:20;;;;;;;;;;;;;;;;;;;;;
2022/08/25 01:15:27;;;;;;;35.92;28.30;;;;;;;21.31;100.00;101628.13;10054768;29;20041;-71
2022/08/25 02:02:41;;;;;;;30.95;26.17;;;;;;;21.01;100.00;101609.16;9961667;29;20053;-70
2022/08/25 02:07:42;;;;;;;32.00;26.17;;;;;;;20.98;100.00;101604.16;10165563;28;20455;-70
2022/08/25 02:12:42;;;;;;;28.17;24.70;;;;;;;20.96;100.00;101600.81;10301936;28;20029;-70
2022/08/25 02:17:43;;;;;;;27.77;24.13;;;;;;;20.96;100.00;101600.81;10299431;28;20057;-69
2022/08/25 02:22:43;;;;;;;27.83;24.45;;;;;;;21.00;100.00;101592.91;10300556;28;20046;-70
2022/08/25 02:27:44;;;;;;;25.00;22.23;;;;;;;21.01;100.00;101594.56;10300388;28;20090;-70
2022/08/25 02:32:45;;;;;;;28.40;23.13;;;;;;;20.99;100.00;101589.31;10299968;28;20034;-70
2022/08/25 02:37:45;;;;;;;24.23;21.70;;;;;;;20.93;100.00;101583.97;10301692;28;20089;-70
2022/08/25 02:42:50;;;;;;;30.42;22.10;;;;;;;20.88;100.00;101574.53;10301830;28;20473;-70
2022/08/25 02:47:50;;;;;;;24.60;20.75;;;;;;;20.82;100.00;101572.78;10298514;28;20073;-70
2022/08/25 02:52:51;;;;;;;24.98;22.33;;;;;;;20.78;100.00;101563.38;10298679;28;20478;-70
2022/08/25 02:57:51;;;;;;;25.05;20.58;;;;;;;20.76;100.00;101560.03;10299295;28;20463;-70
2022/08/25 03:02:51;;;;;;;28.70;20.73;;;;;;;20.70;100.00;101554.69;10297615;28;20383;-70
2022/08/25 03:07:52;;;;;;;25.95;22.90;;;;;;;20.66;100.00;101562.59;10297534;28;20403;-70
2022/08/25 03:12:52;;;;;;;23.08;20.45;;;;;;;20.63;100.00;101557.59;10298528;28;20042;-70
2022/08/25 03:17:53;;;;;;;29.25;22.70;;;;;;;20.56;100.00;101535.75;10300248;28;20031;-70
2022/08/25 03:22:53;;;;;;;21.63;19.50;;;;;;;20.56;100.00;101538.50;10281691;28;20459;-70
2022/08/25 03:27:54;;;;;;;35.22;21.25;;;;;;;20.52;100.00;101536.50;10297027;28;20038;-70
2022/08/25 03:32:55;;;;;;;21.52;19.27;;;;;;;20.46;100.00;101527.28;10296623;28;20023;-70
2022/08/25 03:37:56;;;;;;;23.25;19.83;;;;;;;20.42;100.00;101521.44;10296737;28;20051;-70
2022/08/25 03:42:56;;;;;;;21.83;18.95;;;;;;;20.41;100.00;101503.25;10298078;28;20120;-70
2022/08/25 03:47:56;;;;;;;24.20;20.48;;;;;;;20.39;100.00;101507.38;10296054;28;20042;-70
2022/08/25 03:52:58;;;;;;;21.73;19.67;;;;;;;20.34;100.00;101499.00;10297421;28;20442;-70
2022/08/25 03:57:58;;;;;;;27.65;19.25;;;;;;;20.32;100.00;101506.66;10296832;28;20130;-70
2022/08/25 04:02:58;;;;;;;20.80;18.70;;;;;;;20.27;100.00;101503.84;10296964;28;20038;-69
2022/08/25 04:08:00;;;;;;;18.90;16.95;;;;;;;20.21;100.00;101495.47;10295141;28;20042;-70
2022/08/25 04:13:00;;;;;;;20.17;18.02;;;;;;;20.16;100.00;101486.31;10295322;28;20478;-70
2022/08/25 04:18:01;;;;;;;30.77;18.27;;;;;;;20.10;100.00;101495.53;10295529;28;20043;-70
2022/08/25 04:23:01;;;;;;;22.15;18.10;;;;;;;20.05;100.00;101488.03;10295992;28;20027;-70
2022/08/25 04:28:02;;;;;;;20.52;18.42;;;;;;;19.98;100.00;101495.59;10295866;28;20376;-70
2022/08/25 04:33:02;;;;;;;19.95;17.85;;;;;;;19.96;100.00;101495.84;10296203;28;20042;-71
2022/08/25 04:38:03;;;;;;;19.38;17.23;;;;;;;19.94;100.00;101495.28;10299169;28;20062;-70
2022/08/25 04:43:03;;;;;;;25.92;16.25;;;;;;;19.95;100.00;101493.34;10295222;28;20498;-70
2022/08/25 04:48:04;;;;;;;17.83;16.02;;;;;;;19.94;100.00;101499.91;10294093;28;20039;-70
2022/08/25 04:53:04;;;;;;;18.80;17.00;;;;;;;19.91;100.00;101493.00;10293780;28;20510;-70
2022/08/25 04:58:05;;;;;;;17.92;16.23;;;;;;;19.91;100.00;101500.41;10295547;28;20042;-70
2022/08/25 05:03:05;;;;;;;20.48;15.45;;;;;;;19.87;100.00;101499.22;10295915;28;20378;-70
2022/08/25 05:08:06;;;;;;;17.38;15.07;;;;;;;19.91;100.00;101505.88;10295068;28;20046;-70
2022/08/25 05:13:06;;;;;;;18.63;15.10;;;;;;;19.93;100.00;101496.31;10294145;28;20379;-70
2022/08/25 05:18:07;;;;;;;19.10;15.95;;;;;;;20.02;100.00;101501.44;10295113;28;20039;-70
2022/08/25 05:23:07;;;;;;;16.42;13.60;;;;;;;20.03;100.00;101498.44;10295887;28;20387;-71
2022/08/25 05:28:08;;;;;;;22.73;13.63;;;;;;;20.12;100.00;101499.72;10293176;28;20113;-70
2022/08/25 05:33:08;;;;;;;14.93;13.52;;;;;;;20.18;100.00;101504.22;10294328;28;20035;-70
2022/08/25 05:38:09;;;;;;;19.90;14.15;;;;;;;20.28;100.00;101505.50;10294318;28;20055;-70
2022/08/25 05:43:11;;;;;;;12.95;11.75;;;;;;;20.37;100.00;101504.84;10292870;28;20454;-70
2022/08/25 05:48:11;;;;;;;16.40;13.82;;;;;;;20.57;100.00;101509.88;10293800;28;20027;-70
2022/08/25 05:53:11;;;;;;;15.98;12.98;;;;;;;20.99;100.00;101506.69;10293296;28;20034;-70
2022/08/25 05:58:12;;;;;;;14.27;12.77;;;;;;;20.87;100.00;101511.50;10293601;28;20042;-72
2022/08/25 06:03:12;;;;;;;13.80;12.60;;;;;;;20.82;100.00;101512.22;10293884;28;20042;-70
2022/08/25 06:08:13;;;;;;;15.02;12.52;;;;;;;21.04;100.00;101500.44;10293738;28;20050;-70
2022/08/25 06:13:13;;;;;;;15.70;14.10;;;;;;;21.15;100.00;101505.00;10293468;28;20123;-70
2022/08/25 06:18:14;;;;;;;14.40;12.63;;;;;;;21.37;100.00;101491.28;10292698;28;20050;-70
2022/08/25 06:23:14;;;;;;;14.77;12.88;;;;;;;21.55;99.43;101487.41;10293133;28;20063;-70
2022/08/25 06:28:15;;;;;;;20.15;14.27;;;;;;;22.26;97.26;101485.44;10291514;28;20376;-70
2022/08/25 06:33:15;;;;;;;13.85;12.30;;;;;;;22.78;93.64;101494.16;10293314;28;20457;-70
2022/08/25 06:38:16;;;;;;;21.20;13.38;;;;;;;24.35;89.84;101496.81;10301348;28;20070;-73
2022/08/25 06:43:20;;;;;;;12.05;11.02;;;;;;;24.79;84.31;101498.22;10300840;28;20059;-74
2022/08/25 06:48:22;;;;;;;14.52;12.13;;;;;;;24.40;80.96;101492.38;10298553;28;20058;-73
2022/08/25 06:53:22;;;;;;;16.48;11.07;;;;;;;24.10;80.83;101491.25;10282078;28;20053;-72
2022/08/25 06:58:23;;;;;;;12.37;10.77;;;;;;;25.05;77.81;101482.41;10298730;28;20035;-72
2022/08/25 07:03:24;;;;;;;15.48;11.20;;;;;;;26.80;73.21;101488.66;10298529;28;20269;-71
2022/08/25 07:08:25;;;;;;;26.92;11.02;;;;;;;27.53;65.19;101479.25;10301801;28;20459;-73
2022/08/25 07:13:25;;;;;;;10.40;9.40;;;;;;;28.08;60.36;101479.66;10299026;28;20027;-75
2022/08/25 07:18:25;;;;;;;20.08;9.55;;;;;;;28.01;57.93;101470.81;10298794;28;20391;-72
2022/08/25 07:23:26;;;;;;;16.52;9.75;;;;;;;28.21;59.98;101484.44;10296932;28;20046;-73
2022/08/25 07:28:26;;;;;;;10.70;9.00;;;;;;;28.74;57.34;101472.16;10280668;28;20074;-74
2022/08/25 07:33:27;;;;;;;11.43;10.15;;;;;;;28.98;56.70;101475.63;10296633;28;20037;-73
2022/08/25 07:38:28;;;;;;;9.55;8.18;;;;;;;29.18;54.35;101473.59;10298796;28;20118;-73
2022/08/25 07:43:28;;;;;;;8.63;7.75;;;;;;;29.30;53.59;101471.13;10298412;28;20046;-71
2022/08/25 07:48:29;;;;;;;8.23;7.50;;;;;;;29.60;52.69;101474.38;10296049;28;20047;-70
2022/08/25 07:53:30;;;;;;;12.90;7.45;;;;;;;30.05;51.54;101480.94;10295512;28;20421;-70
2022/08/25 07:58:30;;;;;;;8.00;7.25;;;;;;;30.19;53.01;101482.88;10295672;28;20042;-70
2022/08/25 08:03:32;;;;;;;7.57;6.97;;;;;;;29.89;49.80;101477.66;10296687;28;20117;-70
2022/08/25 08:08:33;;;;;;;35.55;8.00;;;;;;;30.09;50.36;101481.16;10295159;28;20051;-70
2022/08/25 08:13:33;;;;;;;14.43;6.55;;;;;;;30.66;45.60;101488.97;10295803;28;20030;-70
2022/08/25 08:18:34;;;;;;;12.30;5.53;;;;;;;31.20;47.82;101486.97;10295075;28;20132;-70
2022/08/25 08:23:34;;;;;;;8.63;6.43;;;;;;;31.24;43.42;101488.81;10296905;28;20348;-70
2022/08/25 08:28:34;;;;;;;7.80;5.07;;;;;;;31.71;43.95;101486.31;10295823;28;20038;-70
2022/08/25 08:33:35;;;;;;;7.97;4.35;;;;;;;31.95;43.85;101491.50;10293451;28;20027;-70
2022/08/25 08:38:35;;;;;;;8.48;4.15;;;;;;;30.30;46.30;101485.09;10296602;28;20137;-70
2022/08/25 08:43:36;;;;;;;12.85;5.78;;;;;;;29.24;46.95;101483.50;10293763;28;20323;-70
2022/08/25 08:48:39;;;;;;;4.93;4.43;;;;;;;29.06;47.53;101490.00;10276969;28;20533;-69
2022/08/25 08:53:45;;;;;;;3.63;3.42;;;;;;;29.13;47.65;101482.03;10294624;28;20284;-70
2022/08/25 08:58:48;;;;;;;6.00;4.38;;;;;;;30.46;48.79;101487.53;10293799;28;20030;-70
2022/08/25 09:04:03;;;;;;;4.15;3.85;;;;;;;32.31;40.62;101478.31;10293404;28;20367;-70
2022/08/25 09:09:04;;;;;;;4.00;3.70;;;;;;;32.85;41.72;101478.72;10293152;28;20463;-70
2022/08/25 09:14:11;;;;;;;4.55;4.18;;;;;;;33.85;40.13;101476.44;10276699;28;20027;-70
2022/08/25 09:19:22;;;;;;;10.27;3.78;;;;;;;34.68;39.74;101469.91;10293198;28;20030;-70
2022/08/25 09:24:30;;;;;;;5.22;3.25;;;;;;;33.79;36.67;101467.38;10292691;28;20538;-70
2022/08/25 09:29:54;;;;;;;6.55;3.63;;;;;;;32.66;42.15;101465.09;10277382;28;20039;-73
2022/08/25 09:34:55;;;;;;;5.32;4.13;;;;;;;33.42;38.28;101469.09;10293602;28;20082;-69
2022/08/25 09:39:55;;;;;;;12.60;3.60;;;;;;;34.48;37.92;101465.97;10293085;28;20070;-69
2022/08/25 09:44:55;;;;;;;9.70;4.22;;;;;;;34.82;32.33;101464.81;10275624;28;20031;-69
2022/08/25 09:49:59;;;;;;;7.13;4.00;;;;;;;35.00;31.23;101458.94;10293063;28;20058;-71
2022/08/25 09:55:18;;;;;;;3.50;3.20;;;;;;;35.58;33.48;101452.06;10293531;28;20289;-69
2022/08/25 10:00:32;;;;;;;3.63;3.33;;;;;;;35.82;36.34;101447.53;10275107;28;20398;-69
2022/08/25 10:05:34;;;;;;;3.50;3.20;;;;;;;36.09;32.20;101455.25;10292659;28;20039;-79
2022/08/25 10:10:37;;;;;;;5.50;3.08;;;;;;;35.94;33.53;101432.59;10296785;28;20045;-72
2022/08/25 10:15:38;;;;;;;5.22;2.72;;;;;;;36.71;30.18;101441.66;10282786;28;20043;-70
2022/08/25 10:20:38;;;;;;;5.85;4.03;;;;;;;36.63;35.97;101434.19;10302756;28;20077;-70
2022/08/25 10:25:41;;;;;;;5.40;2.93;;;;;;;37.36;33.53;101423.50;10299478;28;20070;-70
2022/08/25 10:30:51;;;;;;;4.22;3.83;;;;;;;36.97;32.16;101418.50;10282078;28;20264;-70
2022/08/25 10:36:14;;;;;;;6.13;3.20;;;;;;;36.73;29.85;101408.25;10299800;28;20043;-74
2022/08/25 10:41:27;;;;;;;9.30;4.00;;;;;;;37.06;32.76;101412.72;10299678;28;20027;-71
2022/08/25 10:46:51;;;;;;;3.40;3.20;;;;;;;38.15;34.10;101398.59;10299184;28;20038;-73
2022/08/25 10:52:06;;;;;;;4.13;3.83;;;;;;;38.59;31.47;101386.91;10299054;28;20482;-72
2022/08/25 10:57:13;;;;;;;;;;;;;;;37.69;35.90;101392.78;10298934;28;20360;-72
2022/08/25 11:02:25;;;;;;;5.65;3.47;;;;;;;37.47;34.53;101385.88;10297167;28;19914;-72
2022/08/25 11:07:33;;;;;;;4.82;3.50;;;;;;;35.98;36.03;101400.50;10297391;28;20041;-72
2022/08/25 11:12:36;;;;;;;4.65;3.25;;;;;;;35.26;38.03;101405.13;10281630;28;20467;-72
2022/08/25 11:17:39;;;;;;;2.92;2.72;;;;;;;34.75;36.35;101399.84;10280859;28;20066;-72
2022/08/25 11:22:49;;;;;;;2.55;2.35;;;;;;;34.48;35.02;101393.66;10297751;28;20370;-72
2022/08/25 11:28:15;;;;;;;3.20;2.95;;;;;;;35.17;35.78;101391.19;10296938;28;20386;-72
2022/08/25 11:33:16;;;;;;;3.88;3.53;;;;;;;35.54;35.73;101389.16;10298407;28;20125;-71
2022/08/25 11:38:35;;;;;;;5.70;3.10;;;;;;;35.41;35.27;101382.69;10296571;28;20058;-72
2022/08/25 11:44:00;;;;;;;4.15;2.88;;;;;;;36.06;33.87;101384.66;10297035;28;20042;-72
2022/08/25 11:49:38;;;;;;;2.95;2.70;;;;;;;36.67;33.95;101383.50;10296441;28;20034;-71
2022/08/25 11:54:42;;;;;;;5.57;3.45;;;;;;;37.75;33.71;101379.19;10297412;28;20514;-71
2022/08/25 11:59:48;;;;;;;9.40;3.42;;;;;;;38.26;33.60;101373.34;10280632;28;20031;-71
2022/08/25 12:04:50;;;;;;;7.35;3.80;;;;;;;38.31;34.94;101366.56;10296475;28;20489;-72
2022/08/25 12:09:50;;;;;;;4.90;4.07;;;;;;;38.73;34.43;101377.00;10297077;28;20035;-72
2022/08/25 12:14:51;;;;;;;4.80;4.03;;;;;;;39.09;35.68;101369.94;10296884;28;20478;-72
2022/08/25 12:19:53;;;;;;;7.30;4.33;;;;;;;38.78;33.83;101356.88;10297015;28;20077;-71
2022/08/25 12:25:25;;;;;;;5.05;3.20;;;;;;;38.42;32.83;101353.47;10278133;28;20340;-72
2022/08/25 12:30:37;;;;;;;3.00;2.80;;;;;;;38.81;33.32;101358.97;10280478;28;20114;-73
2022/08/25 12:35:57;;;;;;;8.40;4.50;;;;;;;38.58;34.09;101359.00;10278657;28;20093;-72
2022/08/25 12:41:01;;;;;;;9.88;3.58;;;;;;;38.40;35.62;101361.50;10278107;28;20035;-73
2022/08/25 12:46:19;;;;;;;8.68;4.00;;;;;;;38.59;36.71;101369.91;10293170;28;20027;-71
2022/08/25 12:51:20;;;;;;;8.88;6.28;;;;;;;38.45;35.89;101363.19;10295279;28;20030;-73
2022/08/25 12:56:33;;;;;;;14.43;6.10;;;;;;;37.99;35.65;101371.59;10294186;28;20117;-72
2022/08/25 13:01:53;;;;;;;5.15;4.65;;;;;;;37.17;37.96;101376.25;10294425;28;20155;-71
2022/08/25 13:07:02;;;;;;;7.18;6.47;;;;;;;37.37;37.26;101368.66;10294369;28;20031;-73
2022/08/25 13:12:13;;;;;;;6.55;4.78;;;;;;;37.43;37.19;101361.50;10294179;28;20438;-73
2022/08/25 13:17:24;;;;;;;6.60;5.30;;;;;;;37.48;37.35;101361.25;10292503;28;20396;-71
2022/08/25 13:22:24;;;;;;;5.45;5.05;;;;;;;37.62;38.65;101358.75;10294660;28;20038;-72
2022/08/25 13:27:26;;;;;;;5.47;4.03;;;;;;;37.40;37.92;101360.25;10276800;28;20035;-71
2022/08/25 13:32:34;;;;;;;9.50;3.97;;;;;;;37.37;36.50;101332.75;10261370;28;20693;-72
2022/08/25 13:37:35;;;;;;;4.75;4.18;;;;;;;36.91;36.75;101340.94;10294996;28;20054;-72
2022/08/25 13:42:36;;;;;;;11.33;4.80;;;;;;;36.24;38.09;101354.94;10292925;28;20509;-71
2022/08/25 13:47:38;;;;;;;5.57;4.65;;;;;;;36.82;38.74;101342.31;10283730;28;20283;-73
2022/08/25 13:52:38;;;;;;;6.13;5.63;;;;;;;36.76;39.00;101342.63;10300376;28;20034;-72
2022/08/25 13:57:40;;;;;;;8.13;6.05;;;;;;;36.48;38.40;101336.22;10300096;28;20062;-73
2022/08/25 14:02:48;;;;;;;6.97;6.32;;;;;;;36.20;39.23;101331.47;10301014;28;20034;-73
2022/08/25 14:07:53;;;;;;;10.82;6.10;;;;;;;35.84;39.81;101330.47;10284251;28;20039;-73
2022/08/25 14:13:26;;;;;;;6.80;5.65;;;;;;;35.84;40.05;101319.19;10284808;28;20451;-72
2022/08/25 14:18:29;;;;;;;7.40;6.70;;;;;;;35.74;40.78;101316.06;10299269;28;20048;-74
2022/08/25 14:23:29;;;;;;;5.88;5.15;;;;;;;35.62;40.42;101323.41;10282732;28;20039;-71
2022/08/25 14:28:30;;;;;;;10.23;7.73;;;;;;;35.24;39.65;101337.91;10298579;28;20035;-72
2022/08/25 14:33:41;;;;;;;10.43;8.80;;;;;;;34.71;41.07;101322.94;10298100;28;20312;-72
2022/08/25 14:38:42;;;;;;;9.85;8.93;;;;;;;33.94;43.03;101339.50;10282667;28;20059;-73
2022/08/25 14:43:42;;;;;;;15.20;13.52;;;;;;;33.19;44.28;101333.84;10300855;28;20046;-70
2022/08/25 14:48:43;;;;;;;13.45;11.32;;;;;;;32.49;45.66;101337.00;10302199;28;20471;-71
2022/08/25 14:53:44;;;;;;;16.38;14.98;;;;;;;31.52;46.74;101342.19;10299374;28;20058;-71
2022/08/25 14:58:44;;;;;;;26.38;19.15;;;;;;;30.67;48.31;101346.09;10298599;28;20050;-71
2022/08/25 15:03:45;;;;;;;23.90;18.10;;;;;;;30.25;49.88;101356.75;10298647;28;20027;-71
2022/08/25 15:14:05;;;;;;;21.83;19.60;;;;;;;29.27;51.34;101353.75;10299232;28;20113;-71
2022/08/25 15:19:07;;;;;;;23.42;20.63;;;;;;;28.66;52.46;101367.81;10296961;28;20129;-71
2022/08/25 15:24:08;;;;;;;26.92;22.10;;;;;;;28.18;53.01;101361.69;10297364;28;20056;-71
2022/08/25 15:29:08;;;;;;;23.85;21.27;;;;;;;27.46;54.02;101356.41;10298968;28;20031;-71
2022/08/25 15:34:09;;;;;;;26.95;22.55;;;;;;;26.83;57.77;101358.28;10280386;28;20467;-70
2022/08/25 15:39:09;;;;;;;37.17;22.52;;;;;;;26.39;59.07;101366.81;10298717;28;20555;-70
2022/08/25 15:44:10;;;;;;;23.45;20.67;;;;;;;26.16;61.33;101362.84;10296673;28;20093;-70
2022/08/25 15:49:10;;;;;;;26.45;22.30;;;;;;;26.07;59.30;101357.13;10297617;28;20043;-70
2022/08/25 15:54:13;;;;;;;25.00;19.45;;;;;;;25.98;60.88;101351.34;10296161;28;20042;-70
2022/08/25 15:59:13;;;;;;;29.35;22.13;;;;;;;25.94;60.84;101354.97;10296624;28;20046;-71
2022/08/25 16:04:13;;;;;;;35.70;24.27;;;;;;;25.99;61.12;101354.94;10296646;28;20035;-71
2022/08/25 16:09:14;;;;;;;29.02;19.75;;;;;;;26.18;60.03;101355.06;10296952;28;20081;-71
2022/08/25 16:14:14;;;;;;;28.73;22.15;;;;;;;26.27;59.56;101346.94;10296112;28;20455;-70
2022/08/25 16:19:15;;;;;;;22.65;19.73;;;;;;;26.36;59.39;101353.53;10280208;28;20035;-70
2022/08/25 16:24:15;;;;;;;28.70;20.98;;;;;;;26.32;60.42;101350.47;10296513;28;20031;-70
2022/08/25 16:29:16;;;;;;;22.23;19.88;;;;;;;26.33;59.73;101346.59;10297042;28;20065;-70
2022/08/25 16:34:17;;;;;;;23.77;20.77;;;;;;;26.20;61.39;101353.66;10295621;28;20047;-71
2022/08/25 16:39:18;;;;;;;26.90;17.70;;;;;;;26.04;61.02;101340.19;10295620;28;20039;-70
2022/08/25 16:44:19;;;;;;;18.83;16.40;;;;;;;25.78;61.75;101345.09;10278375;28;20512;-71
2022/08/25 16:49:20;;;;;;;21.80;16.95;;;;;;;25.52;62.48;101354.41;10277037;28;20054;-70
2022/08/25 16:59:41;;;;;;;17.60;15.40;;;;;;;25.05;64.64;101352.16;10293603;28;20031;-70
2022/08/25 17:04:41;;;;;;;22.20;15.95;;;;;;;24.82;65.70;101353.63;10293383;28;20094;-70
2022/08/25 17:09:42;;;;;;;20.23;14.30;;;;;;;24.64;67.41;101355.06;10293254;28;20046;-70
2022/08/25 17:14:42;;;;;;;20.40;13.13;;;;;;;24.47;66.81;101358.13;10294405;28;20795;-70
2022/08/25 17:19:42;;;;;;;21.27;13.80;;;;;;;24.32;68.50;101358.16;10293948;28;20041;-71
2022/08/25 17:24:46;;;;;;;17.17;13.20;;;;;;;24.25;67.12;101354.81;10294408;28;20285;-70
2022/08/25 17:29:46;;;;;;;17.75;10.98;;;;;;;24.21;68.07;101356.47;10294227;28;20045;-71
2022/08/25 17:34:47;;;;;;;10.48;9.38;;;;;;;24.09;68.09;101349.31;10294661;28;20563;-70
2022/08/25 17:39:47;;;;;;;10.48;8.68;;;;;;;23.99;71.26;101367.81;10294348;28;20042;-70
2022/08/25 17:44:48;;;;;;;11.07;9.18;;;;;;;23.73;72.86;101375.28;10292962;28;20039;-71
2022/08/25 17:49:48;;;;;;;15.60;8.05;;;;;;;23.52;73.90;101390.97;10292078;28;20042;-70
2022/08/25 17:54:49;;;;;;;14.00;6.28;;;;;;;23.30;78.24;101403.06;10293411;28;20031;-70
2022/08/25 17:59:50;;;;;;;11.52;6.53;;;;;;;23.15;76.30;101408.50;10296176;28;20035;-70
2022/08/25 18:04:51;;;;;;;13.45;7.00;;;;;;;23.07;76.76;101409.88;10294249;28;20035;-70
2022/08/25 18:09:52;;;;;;;11.88;7.10;;;;;;;22.84;79.45;101411.06;10292737;28;20046;-70
2022/08/25 18:14:53;;;;;;;8.13;7.10;;;;;;;22.59;84.04;101409.00;10295130;28;20062;-70
2022/08/25 18:19:53;;;;;;;22.67;7.97;;;;;;;22.40;83.47;101405.84;10276095;28;20443;-70
2022/08/25 18:24:53;;;;;;;24.00;7.32;;;;;;;22.34;79.68;101417.09;10293227;28;20122;-70
2022/08/25 18:29:54;;;;;;;11.82;7.32;;;;;;;22.24;81.78;101426.13;10295328;28;20039;-71
2022/08/25 18:34:55;;;;;;;25.63;8.27;;;;;;;22.15;79.72;101422.16;10300060;28;20062;-70
2022/08/25 18:45:14;;;;;;;17.85;7.38;;;;;;;21.93;87.01;101428.56;10302460;28;20038;-75
2022/08/25 18:50:15;;;;;;;12.82;8.65;;;;;;;21.91;83.73;101444.53;10300311;28;20035;-75
2022/08/25 18:55:15;;;;;;;15.43;6.65;;;;;;;21.89;82.80;101454.13;10299941;28;20148;-74
2022/08/25 19:00:17;;;;;;;18.00;10.60;;;;;;;21.77;83.62;101462.59;10300287;28;20555;-75
2022/08/25 19:05:19;;;;;;;14.43;8.23;;;;;;;21.71;85.81;101463.59;10298602;28;20082;-75
2022/08/25 19:10:20;;;;;;;17.75;7.78;;;;;;;21.66;87.57;101472.63;10299197;28;20422;-76
2022/08/25 19:15:21;;;;;;;10.25;6.55;;;;;;;21.63;86.44;101472.31;10297520;28;20066;-75
2022/08/25 19:20:21;;;;;;;13.18;7.30;;;;;;;21.63;87.14;101484.19;10281658;28;20453;-75
2022/08/25 19:25:22;;;;;;;10.77;5.72;;;;;;;21.64;87.04;101501.56;10297195;28;20086;-73
2022/08/25 19:30:23;;;;;;;11.70;5.57;;;;;;;21.57;90.56;101499.00;10299097;28;20038;-74
2022/08/25 19:35:29;;;;;;;14.60;5.82;;;;;;;21.49;91.47;101500.28;10297744;28;20487;-74
2022/08/25 19:40:30;;;;;;;6.60;5.03;;;;;;;21.41;90.52;101506.25;10297782;28;20062;-74
2022/08/25 19:45:30;;;;;;;13.80;6.03;;;;;;;21.37;92.33;101510.56;10297686;28;20276;-74
2022/08/25 19:50:31;;;;;;;8.52;6.78;;;;;;;21.30;92.59;101520.94;10296585;28;20054;-74
2022/08/25 19:55:31;;;;;;;10.70;6.53;;;;;;;;;;10300873;28;20429;-74
2022/08/25 20:00:32;;;;;;;12.10;6.30;;;;;;;21.35;96.97;101515.53;10298452;28;20455;-75
2022/08/25 20:05:34;;;;;;;13.25;5.10;;;;;;;21.33;99.53;101528.69;10280223;28;20031;-74
2022/08/25 20:10:34;;;;;;;7.18;3.33;;;;;;;21.36;96.10;101529.03;10295607;28;20475;-74
2022/08/25 20:15:35;;;;;;;11.90;3.38;;;;;;;21.38;94.94;101538.97;10295980;28;20042;-73
2022/08/25 20:20:35;;;;;;;10.75;3.50;;;;;;;21.39;91.60;101552.50;10297051;28;20125;-73
2022/08/25 20:25:36;;;;;;;4.30;2.13;;;;;;;21.36;95.77;101547.50;10296085;28;20027;-74
2022/08/25 20:30:36;;;;;;;8.38;3.15;;;;;;;21.35;98.62;101548.59;10295967;28;20042;-74
2022/08/25 20:35:36;;;;;;;7.78;3.28;;;;;;;21.34;96.60;101552.38;10296010;28;20051;-73
2022/08/25 20:40:38;;;;;;;8.23;2.97;;;;;;;21.39;93.72;101555.25;10278459;28;20090;-74
2022/08/25 20:45:38;;;;;;;3.58;1.95;;;;;;;21.45;92.24;101559.75;10277679;28;20114;-73
2022/08/25 20:50:39;;;;;;;11.98;3.70;;;;;;;21.45;94.37;101561.69;10295952;28;20141;-73
2022/08/25 20:55:40;;;;;;;8.38;2.42;;;;;;;21.45;93.86;101567.19;10294149;28;20074;-74
2022/08/25 21:00:41;;;;;;;3.92;1.90;;;;;;;21.38;95.92;101563.75;10278196;28;20053;-73
2022/08/25 21:05:42;;;;;;;13.38;2.25;;;;;;;21.23;97.42;101570.69;10294558;28;20069;-72
2022/08/25 21:10:42;;;;;;;11.73;2.22;;;;;;;21.21;97.86;101569.28;10295048;28;20042;-75
2022/08/25 21:15:47;;;;;;;6.30;2.63;;;;;;;21.22;95.77;101570.94;10296976;28;20089;-69
2022/08/25 21:20:47;;;;;;;4.78;1.98;;;;;;;21.20;97.75;101575.88;10295995;28;20043;-69
2022/08/25 21:25:48;;;;;;;7.60;2.45;;;;;;;21.11;98.26;101576.28;10294399;28;20046;-68
2022/08/25 21:30:48;;;;;;;14.25;2.22;;;;;;;21.08;94.86;101582.28;10292549;28;20074;-68
2022/08/25 21:35:49;;;;;;;7.30;3.85;;;;;;;21.10;96.15;101582.88;10294511;28;20074;-69
2022/08/25 21:40:49;;;;;;;4.07;2.03;;;;;;;21.13;92.91;101584.31;10295098;28;20039;-69
2022/08/25 21:45:50;;;;;;;2.58;1.73;;;;;;;21.11;95.04;101590.06;10293947;28;20794;-69
2022/08/25 21:50:50;;;;;;;11.25;2.72;;;;;;;21.13;94.29;101589.81;10294383;28;20042;-68
2022/08/25 21:55:50;;;;;;;6.67;2.63;;;;;;;21.10;91.81;101593.06;10293958;28;20046;-69
2022/08/25 22:00:51;;;;;;;4.68;1.48;;;;;;;21.11;91.49;101590.06;10293253;28;20289;-69
2022/08/25 22:05:51;;;;;;;3.65;2.25;;;;;;;21.07;92.59;101588.91;10297906;28;20054;-68
2022/08/25 22:10:51;;;;;;;2.50;1.25;;;;;;;21.03;92.40;101598.75;10301897;28;20399;-69
2022/08/25 22:15:52;;;;;;;1.58;1.48;;;;;;;20.99;91.97;101599.50;10302521;28;20043;-70
2022/08/25 22:20:53;;;;;;;3.95;1.65;;;;;;;20.98;90.10;101606.91;10303368;28;20027;-70
2022/08/25 22:25:54;;;;;;;7.90;1.35;;;;;;;20.94;89.12;101611.25;10299450;28;20390;-70
2022/08/25 22:30:54;;;;;;;10.48;2.00;;;;;;;20.93;88.46;101611.50;10304050;28;20118;-70
2022/08/25 22:35:54;;;;;;;2.97;1.52;;;;;;;20.85;91.62;101605.31;10300640;28;20062;-70
2022/08/25 22:40:59;;;;;;;6.35;2.38;;;;;;;20.88;89.39;101599.31;10300961;28;20478;-70
2022/08/25 22:46:01;;;;;;;3.80;1.88;;;;;;;20.90;87.64;101610.09;10299303;28;20027;-70
2022/08/25 22:51:06;;;;;;;10.68;1.95;;;;;;;20.90;88.15;101608.19;10300319;28;20082;-70
2022/08/25 22:56:06;;;;;;;8.75;2.15;;;;;;;20.89;88.86;101611.16;10299062;28;20031;-70
2022/08/25 23:01:12;;;;;;;3.58;1.75;;;;;;;20.87;89.67;101607.84;10299572;28;20042;-70
2022/08/25 23:06:13;;;;;;;3.53;1.70;;;;;;;20.77;93.16;101625.03;10300473;28;20082;-70
2022/08/25 23:11:14;;;;;;;5.88;1.85;;;;;;;20.76;90.38;101617.00;10300159;28;20038;-70
2022/08/25 23:16:15;;;;;;;14.48;1.65;;;;;;;20.73;90.37;101632.09;10297879;28;20030;-70
2022/08/25 23:26:35;;;;;;;2.72;1.33;;;;;;;20.62;93.39;101609.06;10297759;28;20039;-70
2022/08/25 23:31:35;;;;;;;3.50;1.13;;;;;;;20.57;92.28;101614.44;10298863;28;20038;-70
2022/08/25 23:36:35;;;;;;;10.30;2.22;;;;;;;20.59;90.67;101628.81;10298616;28;20490;-70
2022/08/25 23:41:36;;;;;;;3.55;1.33;;;;;;;20.60;91.62;101626.88;10298100;28;20101;-71
2022/08/25 23:46:36;;;;;;;9.27;1.27;;;;;;;20.58;91.51;101620.78;10299072;28;20038;-70
2022/08/25 23:51:37;;;;;;;10.65;1.75;;;;;;;20.52;94.17;101600.63;10298305;28;20062;-70
2022/08/25 23:56:38;;;;;;;4.45;1.27;;;;;;;20.55;91.61;101602.88;10296272;28;20115;-70
